createdAt,value
2023-02-19T00:01:53.581Z,11.16
2023-02-19T00:04:26.520Z,11.21
2023-02-19T00:06:55.458Z,11.13
2023-02-19T00:09:24.490Z,11.12
2023-02-19T00:11:51.259Z,11.15
2023-02-19T00:14:22.270Z,11.18
2023-02-19T00:16:54.206Z,11.18
2023-02-19T00:19:27.904Z,11.15
2023-02-19T00:21:57.164Z,11.11
2023-02-19T00:24:28.605Z,11.13
2023-02-19T00:26:57.522Z,11.02
2023-02-19T00:29:25.144Z,11.05
2023-02-19T00:31:56.665Z,11.09
2023-02-19T00:34:32.901Z,11.05
2023-02-19T00:37:02.073Z,11.04
2023-02-19T00:39:28.738Z,10.99
2023-02-19T00:41:55.356Z,11.05
2023-02-19T00:44:25.006Z,10.99
2023-02-19T00:46:54.235Z,10.97
2023-02-19T00:49:25.892Z,10.94
2023-02-19T00:51:55.458Z,10.96
2023-02-19T00:54:23.152Z,10.96
2023-02-19T00:56:50.855Z,10.90
2023-02-19T00:59:19.969Z,10.93
2023-02-19T01:01:51.738Z,10.94
2023-02-19T01:04:23.370Z,10.97
2023-02-19T01:06:52.528Z,10.97
2023-02-19T01:09:19.317Z,10.90
2023-02-19T01:11:46.161Z,10.91
2023-02-19T01:14:15.337Z,10.92
2023-02-19T01:16:44.588Z,10.93
2023-02-19T01:19:14.323Z,10.92
2023-02-19T01:21:41.221Z,10.97
2023-02-19T01:24:13.206Z,11.02
2023-02-19T01:26:40.646Z,10.99
2023-02-19T01:29:07.280Z,11.00
2023-02-19T01:31:34.513Z,10.99
2023-02-19T01:34:03.802Z,11.04
2023-02-19T01:36:33.381Z,11.01
2023-02-19T01:39:05.240Z,11.01
2023-02-19T01:41:41.960Z,11.03
2023-02-19T01:44:12.208Z,11.04
2023-02-19T01:46:40.379Z,11.05
2023-02-19T01:49:11.827Z,10.96
2023-02-19T01:51:48.971Z,10.85
2023-02-19T01:54:25.217Z,10.85
2023-02-19T01:56:55.816Z,10.87
2023-02-19T01:59:22.683Z,10.85
2023-02-19T02:01:54.609Z,10.89
2023-02-19T02:04:21.562Z,10.81
2023-02-19T02:06:56.184Z,10.87
2023-02-19T02:09:47.505Z,10.80
2023-02-19T02:12:16.498Z,10.76
2023-02-19T02:14:50.824Z,10.64
2023-02-19T02:17:31.453Z,10.57
2023-02-19T02:20:27.190Z,10.57
2023-02-19T02:23:03.101Z,10.57
2023-02-19T02:26:12.327Z,10.56
2023-02-19T02:28:58.283Z,10.55
2023-02-19T02:31:30.675Z,10.43
2023-02-19T02:34:03.490Z,10.45
2023-02-19T02:36:37.176Z,10.46
2023-02-19T02:39:14.261Z,10.40
2023-02-19T02:42:15.214Z,10.36
2023-02-19T02:45:06.773Z,10.28
2023-02-19T02:47:57.979Z,10.24
2023-02-19T02:50:34.529Z,10.17
2023-02-19T02:53:24.846Z,10.14
2023-02-19T02:55:57.259Z,9.97
2023-02-19T02:58:28.164Z,9.92
2023-02-19T03:01:25.837Z,9.76
2023-02-19T03:04:15.801Z,9.58
2023-02-19T03:06:47.705Z,9.54
2023-02-19T03:09:40.765Z,9.58
2023-02-19T03:12:33.408Z,9.58
2023-02-19T03:15:26.031Z,9.48
2023-02-19T03:18:17.513Z,9.36
2023-02-19T03:20:51.312Z,9.33
2023-02-19T03:23:47.661Z,9.23
2023-02-19T03:26:19.539Z,9.17
2023-02-19T03:29:12.205Z,9.16
2023-02-19T03:31:43.840Z,9.10
2023-02-19T03:34:25.266Z,9.04
2023-02-19T03:37:05.148Z,9.09
2023-02-19T03:39:32.510Z,9.04
2023-02-19T03:42:09.488Z,9.02
2023-02-19T03:45:01.743Z,8.96
2023-02-19T03:47:41.575Z,8.89
2023-02-19T03:50:17.834Z,8.84
2023-02-19T03:52:50.892Z,8.84
2023-02-19T03:55:28.927Z,8.79
2023-02-19T03:58:19.839Z,8.79
2023-02-19T04:00:49.731Z,8.79
2023-02-19T04:03:37.690Z,8.80
2023-02-19T04:06:30.805Z,8.71
2023-02-19T04:09:04.299Z,8.74
2023-02-19T04:11:33.325Z,8.78
2023-02-19T04:14:11.549Z,8.72
2023-02-19T04:16:43.509Z,8.72
2023-02-19T04:19:16.813Z,8.67
2023-02-19T04:21:46.664Z,8.61
2023-02-19T04:24:19.024Z,8.65
2023-02-19T04:26:46.229Z,8.66
2023-02-19T04:29:15.333Z,8.66
2023-02-19T04:31:46.974Z,8.67
2023-02-19T04:34:13.574Z,8.63
2023-02-19T04:36:40.230Z,8.62
2023-02-19T04:39:08.238Z,8.65
2023-02-19T04:41:34.856Z,8.67
2023-02-19T04:44:11.222Z,8.67
2023-02-19T04:46:37.912Z,8.74
2023-02-19T04:49:07.116Z,8.70
2023-02-19T04:51:33.798Z,8.63
2023-02-19T04:54:00.514Z,8.61
2023-02-19T04:56:29.571Z,8.64
2023-02-19T04:58:58.668Z,8.68
2023-02-19T05:01:25.892Z,8.69
2023-02-19T05:03:52.791Z,8.74
2023-02-19T05:06:21.743Z,8.72
2023-02-19T05:08:48.763Z,8.64
2023-02-19T05:11:15.411Z,8.69
2023-02-19T05:13:44.345Z,8.74
2023-02-19T05:16:14.026Z,8.75
2023-02-19T05:18:45.102Z,8.74
2023-02-19T05:21:12.412Z,8.76
2023-02-19T05:23:41.887Z,8.75
2023-02-19T05:26:23.026Z,8.78
2023-02-19T05:28:53.733Z,8.74
2023-02-19T05:31:21.443Z,8.78
2023-02-19T05:33:52.938Z,8.70
2023-02-19T05:36:22.995Z,8.75
2023-02-19T05:38:57.589Z,8.87
2023-02-19T05:41:30.137Z,8.91
2023-02-19T05:43:59.318Z,8.92
2023-02-19T05:46:30.936Z,8.98
2023-02-19T05:49:03.475Z,8.95
2023-02-19T05:51:30.336Z,8.85
2023-02-19T05:53:59.521Z,8.96
2023-02-19T05:56:39.016Z,9.00
2023-02-19T05:59:16.119Z,9.02
2023-02-19T06:01:45.432Z,9.00
2023-02-19T06:04:12.889Z,8.96
2023-02-19T06:06:42.484Z,8.92
2023-02-19T06:09:11.895Z,9.02
2023-02-19T06:11:39.529Z,9.05
2023-02-19T06:14:09.602Z,9.13
2023-02-19T06:16:36.256Z,9.16
2023-02-19T06:19:05.369Z,9.12
2023-02-19T06:21:32.146Z,9.13
2023-02-19T06:24:07.298Z,9.14
2023-02-19T06:26:36.375Z,9.20
2023-02-19T06:29:03.388Z,9.20
2023-02-19T06:31:30.238Z,9.23
2023-02-19T06:33:59.330Z,9.28
2023-02-19T06:36:28.510Z,9.25
2023-02-19T06:39:03.160Z,9.35
2023-02-19T06:41:40.008Z,9.38
2023-02-19T06:44:11.775Z,9.42
2023-02-19T06:46:41.607Z,9.38
2023-02-19T06:49:08.392Z,9.26
2023-02-19T06:51:40.358Z,9.19
2023-02-19T06:54:07.050Z,9.20
2023-02-19T06:56:37.667Z,9.20
2023-02-19T06:59:07.396Z,9.17
2023-02-19T07:01:35.503Z,9.23
2023-02-19T07:04:05.930Z,9.28
2023-02-19T07:06:36.095Z,9.20
2023-02-19T07:09:04.244Z,9.26
2023-02-19T07:11:35.645Z,9.23
2023-02-19T07:14:04.189Z,9.29
2023-02-19T07:16:31.081Z,9.31
2023-02-19T07:19:01.926Z,9.36
2023-02-19T07:21:31.312Z,9.24
2023-02-19T07:24:00.421Z,9.30
2023-02-19T07:26:29.191Z,9.28
2023-02-19T07:28:58.085Z,9.31
2023-02-19T07:31:25.101Z,9.30
2023-02-19T07:33:52.014Z,9.33
2023-02-19T07:36:23.168Z,9.30
2023-02-19T07:38:59.559Z,9.28
2023-02-19T07:41:28.742Z,9.22
2023-02-19T07:44:01.899Z,9.25
2023-02-19T07:46:33.552Z,9.25
2023-02-19T07:49:02.288Z,9.28
2023-02-19T07:51:28.913Z,9.27
2023-02-19T07:53:57.906Z,9.28
2023-02-19T07:56:28.843Z,9.30
2023-02-19T07:59:00.603Z,9.35
2023-02-19T08:02:05.603Z,9.34
2023-02-19T08:04:32.285Z,9.38
2023-02-19T08:07:01.505Z,9.41
2023-02-19T08:09:28.110Z,9.41
2023-02-19T08:12:13.424Z,9.36
2023-02-19T08:14:40.076Z,9.41
2023-02-19T08:17:11.451Z,9.41
2023-02-19T08:19:41.136Z,9.47
2023-02-19T08:22:10.350Z,9.46
2023-02-19T08:24:39.457Z,9.46
2023-02-19T08:27:08.099Z,9.45
2023-02-19T08:29:37.020Z,9.51
2023-02-19T08:32:03.784Z,9.35
2023-02-19T08:34:30.508Z,9.38
2023-02-19T08:36:57.149Z,9.43
2023-02-19T08:39:26.167Z,9.49
2023-02-19T08:41:52.790Z,9.49
2023-02-19T08:44:19.579Z,9.54
2023-02-19T08:46:46.273Z,9.48
2023-02-19T08:49:16.511Z,9.52
2023-02-19T08:51:52.906Z,9.53
2023-02-19T08:54:21.871Z,9.61
2023-02-19T08:56:48.523Z,9.64
2023-02-19T08:59:20.332Z,9.63
2023-02-19T09:01:47.153Z,9.68
2023-02-19T09:04:13.940Z,9.71
2023-02-19T09:06:40.896Z,9.68
2023-02-19T09:09:07.538Z,9.82
2023-02-19T09:11:38.408Z,9.87
2023-02-19T09:14:07.590Z,9.91
2023-02-19T09:16:35.038Z,10.02
2023-02-19T09:19:01.875Z,10.02
2023-02-19T09:21:31.599Z,10.08
2023-02-19T09:24:02.621Z,10.14
2023-02-19T09:26:29.235Z,10.16
2023-02-19T09:28:58.364Z,10.16
2023-02-19T09:31:25.075Z,10.12
2023-02-19T09:33:54.065Z,10.15
2023-02-19T09:36:20.729Z,10.12
2023-02-19T09:38:47.419Z,10.01
2023-02-19T09:41:34.262Z,10.06
2023-02-19T09:44:05.090Z,10.03
2023-02-19T09:46:36.352Z,10.04
2023-02-19T09:49:14.616Z,9.98
2023-02-19T09:51:46.647Z,9.92
2023-02-19T09:54:36.279Z,10.01
2023-02-19T09:57:06.588Z,9.94
2023-02-19T09:59:41.973Z,9.90
2023-02-19T10:02:20.531Z,9.93
2023-02-19T10:04:48.425Z,9.91
2023-02-19T10:07:21.940Z,9.87
2023-02-19T10:10:02.112Z,9.89
2023-02-19T10:12:32.451Z,9.89
2023-02-19T10:15:11.915Z,9.99
2023-02-19T10:17:43.352Z,10.05
2023-02-19T10:20:24.634Z,10.14
2023-02-19T10:23:03.016Z,10.23
2023-02-19T10:25:30.968Z,10.36
2023-02-19T10:28:04.330Z,10.41
2023-02-19T10:30:35.841Z,10.53
2023-02-19T10:33:09.107Z,10.56
2023-02-19T10:35:49.922Z,10.65
2023-02-19T10:38:20.942Z,10.70
2023-02-19T10:41:00.532Z,10.73
2023-02-19T10:43:35.421Z,10.74
2023-02-19T10:46:08.320Z,10.78
2023-02-19T10:48:36.861Z,10.83
2023-02-19T10:51:10.764Z,10.86
2023-02-19T10:53:53.558Z,10.92
2023-02-19T10:56:26.160Z,11.02
2023-02-19T10:58:53.138Z,11.05
2023-02-19T11:01:23.379Z,11.08
2023-02-19T11:04:15.092Z,11.08
2023-02-19T11:06:41.917Z,11.08
2023-02-19T11:09:22.430Z,11.12
2023-02-19T11:11:53.326Z,11.10
2023-02-19T11:14:28.931Z,11.19
2023-02-19T11:17:00.984Z,11.20
2023-02-19T11:19:38.225Z,11.23
2023-02-19T11:22:37.739Z,11.22
2023-02-19T11:25:10.293Z,11.24
2023-02-19T11:27:57.999Z,11.20
2023-02-19T11:30:31.921Z,11.24
2023-02-19T11:33:19.971Z,11.27
2023-02-19T11:35:55.485Z,11.26
2023-02-19T11:38:28.088Z,11.26
2023-02-19T11:41:28.447Z,11.28
2023-02-19T11:44:20.133Z,11.21
2023-02-19T11:46:57.709Z,11.20
2023-02-19T11:50:05.952Z,11.14
2023-02-19T11:53:09.798Z,11.10
2023-02-19T11:55:53.859Z,11.01
2023-02-19T11:58:33.669Z,10.99
2023-02-19T12:01:14.821Z,10.97
2023-02-19T12:04:03.206Z,10.91
2023-02-19T12:06:48.431Z,10.84
2023-02-19T12:09:33.718Z,10.83
2023-02-19T12:12:32.091Z,10.83
2023-02-19T12:14:58.753Z,10.79
2023-02-19T12:17:59.916Z,10.80
2023-02-19T12:20:44.028Z,10.76
2023-02-19T12:23:37.900Z,10.78
2023-02-19T12:26:51.384Z,10.78
2023-02-19T12:29:24.741Z,10.79
2023-02-19T12:32:16.679Z,10.85
2023-02-19T12:35:04.410Z,10.85
2023-02-19T12:37:59.051Z,10.87
2023-02-19T12:40:39.544Z,10.85
2023-02-19T12:43:27.351Z,10.83
2023-02-19T12:46:06.898Z,10.87
2023-02-19T12:48:53.463Z,10.78
2023-02-19T12:51:45.762Z,10.73
2023-02-19T12:54:27.357Z,10.69
2023-02-19T12:57:05.747Z,10.64
2023-02-19T12:59:55.389Z,10.57
2023-02-19T13:02:36.292Z,10.57
2023-02-19T13:05:13.368Z,10.57
2023-02-19T13:08:04.982Z,10.56
2023-02-19T13:10:49.186Z,10.49
2023-02-19T13:13:24.037Z,10.49
2023-02-19T13:16:02.502Z,10.48
2023-02-19T13:18:37.097Z,10.44
2023-02-19T13:21:06.338Z,10.44
2023-02-19T13:23:58.174Z,10.45
2023-02-19T13:26:45.271Z,10.44
2023-02-19T13:29:40.352Z,10.46
2023-02-19T13:32:34.556Z,10.46
2023-02-19T13:35:26.116Z,10.45
2023-02-19T13:37:54.613Z,10.45
2023-02-19T13:40:37.587Z,10.47
2023-02-19T13:43:30.887Z,10.50
2023-02-19T13:46:12.370Z,10.51
2023-02-19T13:48:47.207Z,10.55
2023-02-19T13:51:21.645Z,10.55
2023-02-19T13:53:59.406Z,10.57
2023-02-19T13:56:34.355Z,10.57
2023-02-19T13:59:26.147Z,10.55
2023-02-19T14:01:58.653Z,10.56
2023-02-19T14:04:41.276Z,10.50
2023-02-19T14:07:10.865Z,10.49
2023-02-19T14:09:40.009Z,10.48
2023-02-19T14:12:09.700Z,10.48
2023-02-19T14:14:46.694Z,10.48
2023-02-19T14:17:56.935Z,10.49
2023-02-19T14:20:34.997Z,10.40
2023-02-19T14:23:14.683Z,10.41
2023-02-19T14:25:49.063Z,10.26
2023-02-19T14:28:17.958Z,10.22
2023-02-19T14:30:50.576Z,10.23
2023-02-19T14:33:40.291Z,10.18
2023-02-19T14:36:27.554Z,10.15
2023-02-19T14:38:58.868Z,10.15
2023-02-19T14:41:30.025Z,10.17
2023-02-19T14:44:00.800Z,10.13
2023-02-19T14:46:49.740Z,10.07
2023-02-19T14:49:20.077Z,10.08
2023-02-19T14:51:54.649Z,10.08
2023-02-19T14:54:42.176Z,10.03
2023-02-19T14:57:18.400Z,10.05
2023-02-19T15:00:03.818Z,10.03
2023-02-19T15:02:32.284Z,10.00
2023-02-19T15:05:01.072Z,10.04
2023-02-19T15:07:35.826Z,10.00
2023-02-19T15:10:05.835Z,10.02
2023-02-19T15:12:56.393Z,10.01
2023-02-19T15:15:30.520Z,10.05
2023-02-19T15:18:03.914Z,10.06
2023-02-19T15:20:35.649Z,10.04
2023-02-19T15:23:08.302Z,10.07
2023-02-19T15:25:37.860Z,10.06
2023-02-19T15:28:26.516Z,10.06
2023-02-19T15:30:59.211Z,10.04
2023-02-19T15:33:30.672Z,9.99
2023-02-19T15:36:07.299Z,10.01
2023-02-19T15:38:34.449Z,10.01
2023-02-19T15:41:06.053Z,10.01
2023-02-19T15:43:34.699Z,9.99
2023-02-19T15:46:16.881Z,9.87
2023-02-19T15:48:47.203Z,9.90
2023-02-19T15:51:27.856Z,9.90
2023-02-19T15:54:13.341Z,9.91
2023-02-19T15:56:46.252Z,9.86
2023-02-19T15:59:32.199Z,9.83
2023-02-19T16:02:01.951Z,9.74
2023-02-19T16:04:31.257Z,9.74
2023-02-19T16:07:04.850Z,9.75
2023-02-19T16:09:42.928Z,9.77
2023-02-19T16:12:25.380Z,9.79
2023-02-19T16:14:54.640Z,9.74
2023-02-19T16:17:28.176Z,9.75
2023-02-19T16:20:00.489Z,9.77
2023-02-19T16:22:31.003Z,9.76
2023-02-19T16:25:02.998Z,9.75
2023-02-19T16:27:36.060Z,9.71
2023-02-19T16:30:15.000Z,9.72
2023-02-19T16:32:44.266Z,9.69
2023-02-19T16:35:36.755Z,9.67
2023-02-19T16:38:03.456Z,9.65
2023-02-19T16:40:45.452Z,9.60
2023-02-19T16:43:15.236Z,9.60
2023-02-19T16:45:43.988Z,9.54
2023-02-19T16:48:13.455Z,9.58
2023-02-19T16:50:43.097Z,9.53
2023-02-19T16:53:25.958Z,9.55
2023-02-19T16:55:57.641Z,9.46
2023-02-19T16:58:32.599Z,9.48
2023-02-19T17:01:01.874Z,9.44
2023-02-19T17:03:31.351Z,9.38
2023-02-19T17:06:02.939Z,9.42
2023-02-19T17:08:37.805Z,9.43
2023-02-19T17:11:14.291Z,9.45
2023-02-19T17:13:45.998Z,9.43
2023-02-19T17:16:24.045Z,9.45
2023-02-19T17:18:51.676Z,9.44
2023-02-19T17:21:20.790Z,9.42
2023-02-19T17:23:47.587Z,9.42
2023-02-19T17:26:20.339Z,9.40
2023-02-19T17:28:47.412Z,9.31
2023-02-19T17:31:20.084Z,9.26
2023-02-19T17:33:50.207Z,9.29
2023-02-19T17:36:26.687Z,9.36
2023-02-19T17:38:59.921Z,9.35
2023-02-19T17:41:29.495Z,9.36
2023-02-19T17:44:01.621Z,9.32
2023-02-19T17:46:31.351Z,9.27
2023-02-19T17:49:01.078Z,9.33
2023-02-19T17:51:30.240Z,9.34
2023-02-19T17:54:02.004Z,9.15
2023-02-19T17:56:31.630Z,9.35
2023-02-19T17:59:00.736Z,8.88
2023-02-19T18:01:29.732Z,9.37
2023-02-19T18:03:59.047Z,9.30
2023-02-19T18:06:28.019Z,9.35
2023-02-19T18:09:00.023Z,9.35
2023-02-19T18:11:26.733Z,9.37
2023-02-19T18:14:06.569Z,9.30
2023-02-19T18:16:33.265Z,9.30
2023-02-19T18:19:02.232Z,9.32
2023-02-19T18:21:33.647Z,9.23
2023-02-19T18:24:02.928Z,9.30
2023-02-19T18:26:31.959Z,9.32
2023-02-19T18:29:01.112Z,9.36
2023-02-19T18:31:32.803Z,9.36
2023-02-19T18:33:59.549Z,9.34
2023-02-19T18:36:26.351Z,9.35
2023-02-19T18:38:53.132Z,9.33
2023-02-19T18:41:21.238Z,9.29
2023-02-19T18:43:48.586Z,9.32
2023-02-19T18:46:15.485Z,9.28
2023-02-19T18:48:42.660Z,9.36
2023-02-19T18:51:11.126Z,9.32
2023-02-19T18:53:39.204Z,9.36
2023-02-19T18:56:09.036Z,9.32
2023-02-19T18:58:35.833Z,9.32
2023-02-19T19:01:05.190Z,9.33
2023-02-19T19:03:34.214Z,9.31
2023-02-19T19:06:00.965Z,9.25
2023-02-19T19:08:29.753Z,9.18
2023-02-19T19:10:57.234Z,9.25
2023-02-19T19:13:26.412Z,9.16
2023-02-19T19:15:57.643Z,9.26
2023-02-19T19:18:27.942Z,9.25
2023-02-19T19:20:56.729Z,9.26
2023-02-19T19:23:25.775Z,9.23
2023-02-19T19:25:54.996Z,9.21
2023-02-19T19:28:24.145Z,9.25
2023-02-19T19:30:51.054Z,9.16
2023-02-19T19:33:17.877Z,9.13
2023-02-19T19:35:44.608Z,9.13
2023-02-19T19:38:11.489Z,9.04
2023-02-19T19:40:38.497Z,9.11
2023-02-19T19:43:05.991Z,9.13
2023-02-19T19:45:32.797Z,9.06
2023-02-19T19:48:06.725Z,9.10
2023-02-19T19:50:33.396Z,9.02
2023-02-19T19:53:00.216Z,9.06
2023-02-19T19:55:26.890Z,9.09
2023-02-19T19:57:54.613Z,9.04
2023-02-19T20:00:23.535Z,9.00
2023-02-19T20:02:57.789Z,9.07
2023-02-19T20:05:26.934Z,9.01
2023-02-19T20:07:56.648Z,8.98
2023-02-19T20:10:23.378Z,9.03
2023-02-19T20:12:52.252Z,8.86
2023-02-19T20:15:24.986Z,9.02
2023-02-19T20:17:51.756Z,8.93
2023-02-19T20:20:19.734Z,8.96
2023-02-19T20:22:48.889Z,8.94
2023-02-19T20:25:19.332Z,8.95
2023-02-19T20:27:50.723Z,9.02
2023-02-19T20:30:24.060Z,8.81
2023-02-19T20:32:50.793Z,8.94
2023-02-19T20:35:18.000Z,9.00
2023-02-19T20:37:48.116Z,9.02
2023-02-19T20:40:18.607Z,9.01
2023-02-19T20:42:50.649Z,8.98
2023-02-19T20:45:17.344Z,8.92
2023-02-19T20:47:48.606Z,9.03
2023-02-19T20:50:18.847Z,9.02
2023-02-19T20:52:46.553Z,8.97
2023-02-19T20:55:13.397Z,8.98
2023-02-19T20:57:40.137Z,8.97
2023-02-19T21:00:09.552Z,8.91
2023-02-19T21:02:38.501Z,8.92
2023-02-19T21:05:09.516Z,8.96
2023-02-19T21:07:40.472Z,8.97
2023-02-19T21:10:13.028Z,9.00
2023-02-19T21:12:43.201Z,8.98
2023-02-19T21:15:09.912Z,8.90
2023-02-19T21:17:38.853Z,8.87
2023-02-19T21:20:08.985Z,8.84
2023-02-19T21:22:35.667Z,8.87
2023-02-19T21:25:07.142Z,8.88
2023-02-19T21:27:36.497Z,8.86
2023-02-19T21:30:08.771Z,8.86
2023-02-19T21:32:37.888Z,8.88
2023-02-19T21:35:07.428Z,8.81
2023-02-19T21:37:43.574Z,8.79
2023-02-19T21:40:12.302Z,8.77
2023-02-19T21:42:39.086Z,8.70
2023-02-19T21:45:10.484Z,8.76
2023-02-19T21:47:41.957Z,8.70
2023-02-19T21:50:11.287Z,8.68
2023-02-19T21:52:40.438Z,8.70
2023-02-19T21:55:09.468Z,8.60
2023-02-19T21:57:38.627Z,8.53
2023-02-19T22:00:11.859Z,8.48
2023-02-19T22:02:41.125Z,8.52
2023-02-19T22:05:08.202Z,8.62
2023-02-19T22:07:37.580Z,8.58
2023-02-19T22:10:10.734Z,8.43
2023-02-19T22:12:39.596Z,8.48
2023-02-19T22:15:11.890Z,8.50
2023-02-19T22:17:39.392Z,8.36
2023-02-19T22:20:09.153Z,8.33
2023-02-19T22:22:35.788Z,8.31
2023-02-19T22:25:04.812Z,8.39
2023-02-19T22:27:33.747Z,8.35
2023-02-19T22:30:00.569Z,8.37
2023-02-19T22:32:34.145Z,8.45
2023-02-19T22:35:00.827Z,8.37
2023-02-19T22:37:29.966Z,8.38
2023-02-19T22:40:01.360Z,8.42
2023-02-19T22:42:29.420Z,8.44
2023-02-19T22:44:58.594Z,8.48
2023-02-19T22:47:27.525Z,8.48
2023-02-19T22:49:56.441Z,8.41
2023-02-19T22:52:27.930Z,8.43
2023-02-19T22:54:57.200Z,8.38
2023-02-19T22:57:28.247Z,8.46
2023-02-19T22:59:59.756Z,8.47
2023-02-19T23:02:26.357Z,8.43
2023-02-19T23:04:55.194Z,8.52
2023-02-19T23:07:24.453Z,8.51
2023-02-19T23:09:51.207Z,8.55
2023-02-19T23:12:18.274Z,8.57
2023-02-19T23:14:47.931Z,8.51
2023-02-19T23:17:16.924Z,8.58
2023-02-19T23:19:48.983Z,8.48
2023-02-19T23:22:25.326Z,8.55
2023-02-19T23:24:57.234Z,8.58
2023-02-19T23:27:27.479Z,8.58
2023-02-19T23:29:55.925Z,8.59
2023-02-19T23:32:27.492Z,8.58
2023-02-19T23:34:54.127Z,8.49
2023-02-19T23:37:20.776Z,8.60
2023-02-19T23:39:52.232Z,8.53
2023-02-19T23:42:26.842Z,8.55
2023-02-19T23:44:53.580Z,8.56
2023-02-19T23:47:21.887Z,8.53
2023-02-19T23:49:53.435Z,8.61
2023-02-19T23:52:23.218Z,8.57
2023-02-19T23:54:49.838Z,8.59
2023-02-19T23:57:16.515Z,8.54
2023-02-19T23:59:49.175Z,8.46
